Time;durP1;ratioP1;P1;durP2;ratioP2;P2;SDS_P1;SDS_P2;PMS_P1;PMS_P2;Temp;Humidity;BMP_temperature;BMP_pressure;BME280_temperature;BME280_humidity;BME280_pressure;Samples;Min_cycle;Max_cycle;Signal;HPM_P1;HPM_P2
2023/07/15 00:02:17;;;;;;;7.80;3.23;;;19.50;99.90;;;;;;5134879;27;20406;-70
2023/07/15 00:04:43;;;;;;;6.87;2.80;;;19.50;99.90;;;;;;5117767;27;20035;-69
2023/07/15 00:07:09;;;;;;;6.07;3.00;;;19.50;99.90;;;;;;5117801;27;20047;-69
2023/07/15 00:09:35;;;;;;;7.03;2.70;;;19.50;99.90;;;;;;5118408;27;20054;-70
2023/07/15 00:12:01;;;;;;;6.47;2.60;;;19.60;99.90;;;;;;5117931;27;20125;-67
2023/07/15 00:14:28;;;;;;;8.25;2.60;;;19.60;99.90;;;;;;5135856;27;20043;-68
2023/07/15 00:16:55;;;;;;;6.28;2.80;;;19.60;99.90;;;;;;5100727;27;20043;-71
2023/07/15 00:19:22;;;;;;;;;;;19.60;99.90;;;;;;5118008;27;20047;-70
2023/07/15 00:21:48;;;;;;;;;;;19.60;99.90;;;;;;5135104;27;20006;-70
2023/07/15 00:24:14;;;;;;;5.18;2.33;;;19.70;99.90;;;;;;5135521;27;19920;-69
2023/07/15 00:26:40;;;;;;;5.73;2.83;;;19.70;99.90;;;;;;5117261;27;20390;-69
2023/07/15 00:29:07;;;;;;;7.25;2.45;;;19.60;99.90;;;;;;5117636;27;20444;-69
2023/07/15 00:31:34;;;;;;;5.53;2.72;;;19.70;99.90;;;;;;5117615;27;20054;-69
2023/07/15 00:34:00;;;;;;;10.25;2.63;;;19.70;99.90;;;;;;5135821;27;20485;-70
2023/07/15 00:36:26;;;;;;;8.27;2.50;;;19.70;99.90;;;;;;5117994;27;20130;-71
2023/07/15 00:38:53;;;;;;;10.60;2.83;;;19.70;99.90;;;;;;5116908;27;20054;-70
2023/07/15 00:41:34;;;;;;;6.85;2.40;;;19.80;99.90;;;;;;5135267;27;20058;-70
2023/07/15 00:44:00;;;;;;;4.95;2.40;;;19.80;99.90;;;;;;5151511;27;20402;-68
2023/07/15 00:46:32;;;;;;;8.30;2.50;;;19.80;99.90;;;;;;5100337;27;20514;-70
2023/07/15 00:49:21;;;;;;;9.35;2.60;;;19.90;99.90;;;;;;5116804;27;20090;-70
2023/07/15 00:52:11;;;;;;;7.38;2.58;;;20.00;99.90;;;;;;5135464;27;20469;-70
2023/07/15 00:54:41;;;;;;;5.57;2.40;;;20.00;99.90;;;;;;5117847;27;20062;-70
2023/07/15 00:57:13;;;;;;;5.82;2.50;;;20.10;99.90;;;;;;5116697;27;20050;-70
2023/07/15 00:59:41;;;;;;;7.55;2.40;;;20.10;99.90;;;;;;5133963;27;20059;-70
2023/07/15 01:02:09;;;;;;;7.88;2.58;;;20.10;99.90;;;;;;5134441;27;20495;-70
2023/07/15 01:04:35;;;;;;;8.05;2.90;;;20.10;99.90;;;;;;5116594;27;20062;-71
2023/07/15 01:07:02;;;;;;;7.10;2.40;;;20.20;99.90;;;;;;5099971;27;20090;-70
2023/07/15 01:09:28;;;;;;;5.22;2.20;;;20.20;99.90;;;;;;5099709;27;20046;-69
2023/07/15 01:11:54;;;;;;;6.28;2.30;;;20.20;99.90;;;;;;5099778;27;20047;-70
2023/07/15 01:14:20;;;;;;;7.23;2.37;;;20.30;99.90;;;;;;5134331;27;20126;-69
2023/07/15 01:16:47;;;;;;;6.63;2.50;;;20.20;99.90;;;;;;5134557;27;20130;-70
2023/07/15 01:19:18;;;;;;;6.70;2.50;;;20.30;99.90;;;;;;5116765;27;20104;-70
2023/07/15 01:21:51;;;;;;;7.07;2.53;;;20.30;99.90;;;;;;5117532;27;20043;-70
2023/07/15 01:24:18;;;;;;;4.80;2.20;;;20.40;99.90;;;;;;5116765;27;20106;-70
2023/07/15 01:26:44;;;;;;;6.68;1.92;;;20.40;99.90;;;;;;5116760;27;20091;-70
2023/07/15 01:29:13;;;;;;;5.20;2.20;;;20.40;99.90;;;;;;5135046;27;20468;-71
2023/07/15 01:31:41;;;;;;;9.40;2.58;;;20.40;99.90;;;;;;5150497;27;20509;-69
2023/07/15 01:34:08;;;;;;;6.30;1.92;;;20.50;99.90;;;;;;5116201;27;20092;-69
2023/07/15 01:36:34;;;;;;;5.28;1.95;;;20.50;99.90;;;;;;5099298;28;20046;-72
2023/07/15 01:38:59;;;;;;;6.77;1.80;;;20.50;99.90;;;;;;5134283;28;20043;-70
2023/07/15 01:41:25;;;;;;;5.73;2.30;;;20.50;99.90;;;;;;5116296;28;20047;-70
2023/07/15 01:43:51;;;;;;;8.30;2.40;;;20.50;99.90;;;;;;5134189;28;20147;-70
2023/07/15 01:46:17;;;;;;;7.97;2.23;;;20.60;99.90;;;;;;5099003;28;20116;-70
2023/07/15 01:48:43;;;;;;;6.40;2.15;;;20.60;99.90;;;;;;5150102;27;20072;-70
2023/07/15 01:51:09;;;;;;;4.40;2.15;;;20.60;99.90;;;;;;5134243;28;20122;-71
2023/07/15 01:53:35;;;;;;;4.77;2.10;;;20.60;99.90;;;;;;5134281;28;20126;-70
2023/07/15 01:56:00;;;;;;;8.07;2.33;;;20.60;99.90;;;;;;5116859;28;20054;-71
2023/07/15 01:58:26;;;;;;;5.97;2.20;;;20.50;99.90;;;;;;5116005;28;20050;-71
2023/07/15 02:00:52;;;;;;;5.30;1.97;;;20.40;99.90;;;;;;5134215;28;20402;-71
2023/07/15 02:03:17;;;;;;;4.27;1.97;;;20.30;99.90;;;;;;5134192;28;20501;-70
2023/07/15 02:05:43;;;;;;;8.00;1.83;;;20.30;99.90;;;;;;5134118;28;20043;-71
2023/07/15 02:08:09;;;;;;;5.83;2.33;;;20.20;99.90;;;;;;5116321;28;20040;-71
2023/07/15 02:10:35;;;;;;;4.97;1.93;;;20.20;99.90;;;;;;5134150;28;20045;-70
2023/07/15 02:13:00;;;;;;;5.67;2.20;;;20.10;99.90;;;;;;5133085;28;20047;-71
2023/07/15 02:15:26;;;;;;;8.57;2.13;;;20.10;99.90;;;;;;5115718;28;20050;-71
2023/07/15 02:17:52;;;;;;;6.00;2.20;;;20.10;99.90;;;;;;5098791;28;20055;-71
2023/07/15 02:20:19;;;;;;;8.83;2.13;;;20.10;99.90;;;;;;5116309;28;20135;-72
2023/07/15 02:22:45;;;;;;;7.28;1.80;;;20.10;99.90;;;;;;5115880;28;20104;-71
2023/07/15 02:25:10;;;;;;;7.00;2.00;;;20.20;99.90;;;;;;5098524;28;20043;-72
2023/07/15 02:27:36;;;;;;;6.33;2.37;;;20.20;99.90;;;;;;5117771;27;20049;-70
2023/07/15 02:30:05;;;;;;;4.50;1.80;;;20.30;99.90;;;;;;5136815;27;20520;-72
2023/07/15 02:32:42;;;;;;;5.57;2.00;;;20.30;99.90;;;;;;5119987;27;20094;-72
2023/07/15 02:35:12;;;;;;;5.28;1.85;;;20.30;99.90;;;;;;5119530;27;20050;-70
2023/07/15 02:37:39;;;;;;;6.35;1.88;;;20.30;99.90;;;;;;5102379;27;20039;-72
2023/07/15 02:40:08;;;;;;;6.70;1.83;;;20.30;99.90;;;;;;5137693;27;20043;-71
2023/07/15 02:42:34;;;;;;;8.00;1.92;;;20.20;99.90;;;;;;5137713;27;20390;-72
2023/07/15 02:45:04;;;;;;;7.13;2.17;;;20.20;99.90;;;;;;5137786;27;20059;-70
2023/07/15 02:47:31;;;;;;;4.72;1.77;;;20.10;99.90;;;;;;5119156;27;20047;-70
2023/07/15 02:50:06;;;;;;;7.03;2.20;;;20.10;99.90;;;;;;5138369;27;20043;-70
2023/07/15 02:52:33;;;;;;;7.43;2.08;;;20.00;99.90;;;;;;5119179;27;20039;-71
2023/07/15 02:55:02;;;;;;;;;;;20.00;99.90;;;;;;5119854;27;20051;-71
2023/07/15 02:57:29;;;;;;;6.60;1.98;;;19.90;99.90;;;;;;5153554;27;20377;-72
2023/07/15 02:59:55;;;;;;;7.03;2.10;;;19.90;99.90;;;;;;5102195;27;20043;-71
2023/07/15 03:02:22;;;;;;;;;;;19.80;99.90;;;;;;5119277;27;20140;-71
2023/07/15 03:04:49;;;;;;;4.10;1.60;;;19.80;99.90;;;;;;5154344;27;19923;-71
2023/07/15 03:07:16;;;;;;;6.30;2.00;;;19.80;99.90;;;;;;5137099;27;20043;-71
2023/07/15 03:09:42;;;;;;;7.72;2.00;;;19.70;99.90;;;;;;5137184;27;20039;-70
2023/07/15 03:12:11;;;;;;;4.95;1.83;;;19.70;99.90;;;;;;5137598;27;20047;-71
2023/07/15 03:14:38;;;;;;;4.93;2.10;;;19.70;99.90;;;;;;5118725;27;20130;-72
2023/07/15 03:17:04;;;;;;;7.22;2.08;;;19.60;99.90;;;;;;5118447;27;20046;-70
2023/07/15 03:19:31;;;;;;;5.93;1.90;;;19.60;99.90;;;;;;5136921;27;20043;-71
2023/07/15 03:21:57;;;;;;;6.72;2.10;;;19.60;99.90;;;;;;5136580;27;20293;-71
2023/07/15 03:24:25;;;;;;;;;;;19.70;99.90;;;;;;5137126;27;20057;-71
2023/07/15 03:26:52;;;;;;;4.53;1.75;;;19.60;99.90;;;;;;5136825;27;19919;-72
2023/07/15 03:29:19;;;;;;;3.85;1.50;;;19.70;99.90;;;;;;5118897;27;20050;-72
2023/07/15 03:31:44;;;;;;;3.28;1.50;;;19.60;99.90;;;;;;5136726;27;20084;-71
2023/07/15 03:34:10;;;;;;;5.60;1.73;;;19.60;99.90;;;;;;5152988;27;20046;-72
2023/07/15 03:36:36;;;;;;;4.60;1.40;;;19.70;99.90;;;;;;5136625;27;20050;-72
2023/07/15 03:39:02;;;;;;;6.30;1.73;;;19.60;99.90;;;;;;5118000;27;20051;-72
2023/07/15 03:41:27;;;;;;;3.73;1.63;;;19.60;99.90;;;;;;5135476;27;20694;-72
2023/07/15 03:43:53;;;;;;;6.17;1.47;;;19.70;99.90;;;;;;5117963;27;20295;-72
2023/07/15 03:46:19;;;;;;;6.63;1.77;;;19.80;99.90;;;;;;5152739;27;20398;-71
2023/07/15 03:48:46;;;;;;;6.57;1.63;;;19.70;99.90;;;;;;5118302;27;20047;-71
2023/07/15 03:51:11;;;;;;;6.88;1.77;;;19.70;99.90;;;;;;5118012;27;20054;-72
2023/07/15 03:53:37;;;;;;;7.27;1.93;;;19.80;99.90;;;;;;5101594;27;20129;-72
2023/07/15 03:56:03;;;;;;;3.85;1.60;;;19.80;99.90;;;;;;5136427;27;20101;-71
2023/07/15 03:58:29;;;;;;;5.50;1.53;;;19.80;99.90;;;;;;5136177;27;20075;-71
2023/07/15 04:00:55;;;;;;;4.73;1.40;;;19.80;99.90;;;;;;5117875;27;20091;-74
2023/07/15 04:03:21;;;;;;;8.52;2.00;;;19.80;99.90;;;;;;5101862;27;20071;-72
2023/07/15 04:05:47;;;;;;;3.80;1.80;;;19.80;99.90;;;;;;5136722;27;20514;-72
2023/07/15 04:08:12;;;;;;;5.37;1.73;;;19.70;99.90;;;;;;5101779;27;20123;-73
2023/07/15 04:10:38;;;;;;;5.40;1.63;;;19.70;99.90;;;;;;5118779;27;20056;-73
2023/07/15 04:13:04;;;;;;;4.00;1.60;;;19.70;99.90;;;;;;5117680;27;20100;-71
2023/07/15 04:15:30;;;;;;;4.60;1.77;;;19.70;99.90;;;;;;5135800;27;20088;-73
2023/07/15 04:17:56;;;;;;;5.28;1.85;;;19.60;99.90;;;;;;5117437;27;20039;-72
2023/07/15 04:20:22;;;;;;;3.87;1.90;;;19.70;99.90;;;;;;5100542;27;20039;-72
2023/07/15 04:22:48;;;;;;;4.90;1.93;;;19.70;99.90;;;;;;5135881;27;20050;-72
2023/07/15 04:25:14;;;;;;;6.63;1.70;;;19.70;99.90;;;;;;5118017;27;20070;-71
2023/07/15 04:27:41;;;;;;;5.40;1.80;;;19.70;99.90;;;;;;5101632;27;20047;-70
2023/07/15 04:30:09;;;;;;;7.28;2.00;;;19.80;99.90;;;;;;5101066;27;20100;-71
2023/07/15 04:32:36;;;;;;;4.90;1.70;;;19.80;99.90;;;;;;5100520;27;20038;-72
2023/07/15 04:35:02;;;;;;;5.32;1.80;;;19.70;99.90;;;;;;5135649;27;20126;-71
2023/07/15 04:37:29;;;;;;;5.85;1.80;;;19.70;99.90;;;;;;5101055;27;20059;-72
2023/07/15 04:39:55;;;;;;;8.32;1.73;;;19.80;99.90;;;;;;5135496;27;20079;-71
2023/07/15 04:42:21;;;;;;;5.23;1.90;;;19.80;99.90;;;;;;5117013;27;20046;-72
2023/07/15 04:44:47;;;;;;;4.45;1.70;;;19.80;99.90;;;;;;5113318;28;20087;-72
2023/07/15 04:47:13;;;;;;;6.67;1.97;;;19.80;99.90;;;;;;5113574;28;20082;-71
2023/07/15 04:49:38;;;;;;;4.77;2.07;;;19.80;99.90;;;;;;5112920;28;20383;-72
2023/07/15 04:52:06;;;;;;;6.33;2.13;;;19.90;99.90;;;;;;5113541;28;20044;-72
2023/07/15 04:54:32;;;;;;;3.80;1.70;;;19.90;99.90;;;;;;5113458;28;20052;-72
2023/07/15 04:56:58;;;;;;;6.35;1.85;;;19.90;99.90;;;;;;5113792;28;20092;-72
2023/07/15 04:59:23;;;;;;;7.90;1.93;;;20.00;99.90;;;;;;5096779;28;20039;-72
2023/07/15 05:01:49;;;;;;;4.80;1.73;;;20.00;99.90;;;;;;5114466;28;20126;-72
2023/07/15 05:04:15;;;;;;;7.33;1.70;;;20.10;99.90;;;;;;5096529;28;20566;-72
2023/07/15 05:06:41;;;;;;;4.93;1.87;;;20.10;99.90;;;;;;5063158;28;20051;-73
2023/07/15 05:09:07;;;;;;;4.50;1.90;;;20.10;99.90;;;;;;5113224;28;20107;-73
2023/07/15 05:11:33;;;;;;;4.60;2.25;;;20.20;99.90;;;;;;5114244;28;20052;-72
2023/07/15 05:13:59;;;;;;;5.63;2.13;;;20.30;99.90;;;;;;5114296;28;20042;-71
2023/07/15 05:16:25;;;;;;;6.60;2.00;;;20.30;99.90;;;;;;5112838;28;20036;-72
2023/07/15 05:18:51;;;;;;;8.87;2.10;;;20.40;99.90;;;;;;5113232;28;20079;-71
2023/07/15 05:21:16;;;;;;;9.00;1.90;;;20.40;99.90;;;;;;5096540;28;20043;-72
2023/07/15 05:23:42;;;;;;;5.77;1.87;;;20.50;99.90;;;;;;5114066;28;20418;-71
2023/07/15 05:26:08;;;;;;;5.47;1.80;;;20.50;99.90;;;;;;5113083;28;20096;-72
2023/07/15 05:28:35;;;;;;;5.57;1.90;;;20.50;99.90;;;;;;5114026;28;20039;-72
2023/07/15 05:31:01;;;;;;;;;;;20.50;99.90;;;;;;5114530;28;20120;-72
2023/07/15 05:33:27;;;;;;;7.78;2.15;;;20.60;99.90;;;;;;5130368;27;19924;-72
2023/07/15 05:35:54;;;;;;;6.72;1.90;;;20.60;99.90;;;;;;5096853;28;20093;-72
2023/07/15 05:38:22;;;;;;;4.60;1.88;;;20.60;99.90;;;;;;5112618;28;20044;-72
2023/07/15 05:40:48;;;;;;;5.40;2.10;;;20.60;99.90;;;;;;5096136;28;20059;-70
2023/07/15 05:43:13;;;;;;;6.87;2.00;;;20.60;99.90;;;;;;5113956;28;20050;-71
2023/07/15 05:45:39;;;;;;;4.63;1.80;;;20.60;99.90;;;;;;5095868;28;20097;-72
2023/07/15 05:48:06;;;;;;;11.13;1.90;;;20.70;99.90;;;;;;5095983;28;20104;-72
2023/07/15 05:50:36;;;;;;;4.93;2.00;;;20.80;99.90;;;;;;5112810;28;20047;-73
2023/07/15 05:53:03;;;;;;;7.22;1.83;;;20.90;99.90;;;;;;5112638;28;20051;-72
2023/07/15 05:55:28;;;;;;;5.22;1.92;;;21.10;99.90;;;;;;5113403;28;20043;-73
2023/07/15 05:57:54;;;;;;;7.40;2.10;;;21.30;99.90;;;;;;5113825;28;20387;-70
2023/07/15 06:00:20;;;;;;;7.00;2.30;;;21.40;99.90;;;;;;5113379;28;20066;-71
2023/07/15 06:02:46;;;;;;;4.35;2.00;;;21.40;99.90;;;;;;5118332;28;20097;-73
2023/07/15 06:05:12;;;;;;;4.30;1.93;;;21.40;99.90;;;;;;5099869;28;20105;-73
2023/07/15 06:07:37;;;;;;;5.90;1.80;;;21.40;99.90;;;;;;5117570;28;20497;-72
2023/07/15 06:10:03;;;;;;;5.70;1.70;;;21.40;99.90;;;;;;5083802;28;20044;-73
2023/07/15 06:12:30;;;;;;;6.95;1.80;;;21.50;99.90;;;;;;5117331;28;20372;-72
2023/07/15 06:14:56;;;;;;;4.40;1.73;;;21.60;99.90;;;;;;5118464;28;20438;-72
2023/07/15 06:17:22;;;;;;;6.53;2.00;;;21.70;99.90;;;;;;5116453;28;20077;-71
2023/07/15 06:19:47;;;;;;;10.97;2.20;;;21.80;99.90;;;;;;5116535;28;20425;-72
2023/07/15 06:22:13;;;;;;;9.27;2.50;;;21.80;99.90;;;;;;5083692;28;20056;-71
2023/07/15 06:24:39;;;;;;;4.37;1.80;;;21.90;99.90;;;;;;5116260;28;20043;-72
2023/07/15 06:27:05;;;;;;;6.90;2.10;;;21.90;99.90;;;;;;5117069;28;20096;-71
2023/07/15 06:29:31;;;;;;;5.85;1.85;;;21.90;99.90;;;;;;5099576;28;20040;-72
2023/07/15 06:31:57;;;;;;;6.23;1.60;;;22.00;99.90;;;;;;5117657;28;20046;-71
2023/07/15 06:34:22;;;;;;;4.30;1.83;;;22.10;99.90;;;;;;5117875;28;20040;-72
2023/07/15 06:36:49;;;;;;;3.57;1.60;;;22.10;99.90;;;;;;5115920;28;20055;-72
2023/07/15 06:39:14;;;;;;;5.18;1.73;;;22.20;99.90;;;;;;5098962;28;20054;-72
2023/07/15 06:41:40;;;;;;;6.03;2.00;;;22.20;99.90;;;;;;5115842;28;20040;-73
2023/07/15 06:44:06;;;;;;;4.73;1.63;;;22.30;99.90;;;;;;5113856;28;20062;-71
2023/07/15 06:46:32;;;;;;;4.33;1.60;;;22.30;99.90;;;;;;5115916;28;20155;-69
2023/07/15 06:48:57;;;;;;;6.10;1.90;;;22.40;99.90;;;;;;5117372;28;20471;-71
2023/07/15 06:51:23;;;;;;;3.63;1.60;;;22.50;99.90;;;;;;5116070;28;20059;-73
2023/07/15 06:53:49;;;;;;;4.83;1.57;;;22.50;99.90;;;;;;5117449;28;20516;-72
2023/07/15 06:56:14;;;;;;;5.07;1.60;;;22.60;99.90;;;;;;5099015;28;20726;-72
2023/07/15 06:58:40;;;;;;;10.47;1.80;;;22.60;99.90;;;;;;5116757;28;20051;-72
2023/07/15 07:01:06;;;;;;;5.00;1.60;;;22.70;99.90;;;;;;5116362;28;20101;-72
2023/07/15 07:03:35;;;;;;;6.13;1.53;;;22.90;99.90;;;;;;5115758;28;20097;-72
2023/07/15 07:06:01;;;;;;;4.38;1.30;;;23.00;99.90;;;;;;5116653;28;20130;-72
2023/07/15 07:08:27;;;;;;;4.70;1.55;;;23.20;99.90;;;;;;5081985;28;20108;-72
2023/07/15 07:10:53;;;;;;;4.05;1.35;;;23.30;99.90;;;;;;5117093;28;20051;-73
2023/07/15 07:13:19;;;;;;;3.55;1.55;;;23.50;99.90;;;;;;5116139;28;20044;-73
2023/07/15 07:15:45;;;;;;;4.43;1.42;;;23.50;99.90;;;;;;5115259;28;20044;-71
2023/07/15 07:18:11;;;;;;;7.60;1.50;;;23.40;99.90;;;;;;5098375;28;20048;-73
2023/07/15 07:20:42;;;;;;;8.35;1.50;;;23.50;99.90;;;;;;5115235;28;20054;-72
2023/07/15 07:23:07;;;;;;;7.78;1.50;;;23.50;99.90;;;;;;5115234;28;20226;-72
2023/07/15 07:25:33;;;;;;;5.53;1.77;;;23.50;99.90;;;;;;5097270;28;20051;-71
2023/07/15 07:27:59;;;;;;;6.05;1.48;;;23.50;99.90;;;;;;5115002;28;20115;-71
2023/07/15 07:30:25;;;;;;;5.23;1.60;;;23.50;99.90;;;;;;5116389;28;20048;-72
2023/07/15 07:32:52;;;;;;;5.32;1.45;;;23.40;99.90;;;;;;5117077;28;20282;-71
2023/07/15 07:35:18;;;;;;;5.13;1.50;;;23.30;99.90;;;;;;5115877;28;20383;-73
2023/07/15 07:37:43;;;;;;;4.40;1.50;;;23.40;99.90;;;;;;5098628;28;20035;-73
2023/07/15 07:40:09;;;;;;;6.03;1.50;;;23.30;99.90;;;;;;5115090;28;20079;-72
2023/07/15 07:42:35;;;;;;;7.20;1.60;;;23.30;99.90;;;;;;5115818;28;20043;-73
2023/07/15 07:45:10;;;;;;;5.32;1.50;;;23.30;99.90;;;;;;5128661;27;20055;-72
2023/07/15 07:47:36;;;;;;;3.33;1.35;;;23.50;99.90;;;;;;5118785;27;20047;-72
2023/07/15 07:50:02;;;;;;;3.77;1.40;;;23.60;99.90;;;;;;5118593;27;20039;-72
2023/07/15 07:52:28;;;;;;;5.97;1.40;;;23.70;99.90;;;;;;5118272;27;20051;-72
2023/07/15 07:54:53;;;;;;;5.60;1.30;;;23.70;99.90;;;;;;5118172;27;20051;-71
2023/07/15 07:57:19;;;;;;;5.47;1.20;;;23.80;99.90;;;;;;5135922;27;20046;-71
2023/07/15 07:59:45;;;;;;;6.57;1.30;;;23.90;99.90;;;;;;5084190;27;20090;-72
2023/07/15 08:02:11;;;;;;;5.68;1.30;;;23.90;99.90;;;;;;5117979;27;20134;-72
2023/07/15 08:04:36;;;;;;;3.53;1.10;;;24.00;99.90;;;;;;5084840;27;20403;-71
2023/07/15 08:07:02;;;;;;;5.47;1.20;;;24.20;99.90;;;;;;5100615;27;20066;-72
2023/07/15 08:09:28;;;;;;;3.85;0.95;;;24.30;99.90;;;;;;5136098;27;20051;-71
2023/07/15 08:11:54;;;;;;;3.10;1.30;;;24.50;99.90;;;;;;5135896;27;20168;-72
2023/07/15 08:14:20;;;;;;;7.28;1.20;;;24.70;99.90;;;;;;5136726;27;20043;-71
2023/07/15 08:16:45;;;;;;;4.43;1.07;;;24.80;99.90;;;;;;5117516;27;20471;-73
2023/07/15 08:19:11;;;;;;;4.63;1.00;;;24.90;99.90;;;;;;5117523;27;20316;-72
2023/07/15 08:21:37;;;;;;;3.33;1.30;;;25.20;99.90;;;;;;5117247;27;20055;-73
2023/07/15 08:24:03;;;;;;;6.13;1.13;;;25.20;99.90;;;;;;5135538;27;20058;-71
2023/07/15 08:26:29;;;;;;;4.07;1.00;;;25.20;99.90;;;;;;5117464;27;20039;-72
2023/07/15 08:28:55;;;;;;;6.53;0.88;;;25.30;99.90;;;;;;5117982;27;20493;-70
2023/07/15 08:31:22;;;;;;;5.32;0.90;;;25.20;99.90;;;;;;5151650;27;20482;-72
2023/07/15 08:33:48;;;;;;;2.20;0.85;;;25.00;99.90;;;;;;5117373;27;20062;-72
2023/07/15 08:36:14;;;;;;;5.32;1.23;;;25.00;99.90;;;;;;5134320;27;20043;-72
2023/07/15 08:38:39;;;;;;;4.63;1.17;;;25.00;99.90;;;;;;5117547;27;20367;-73
2023/07/15 08:41:05;;;;;;;4.63;1.00;;;25.10;99.90;;;;;;5135422;27;20078;-72
2023/07/15 08:43:31;;;;;;;5.68;1.33;;;25.10;99.90;;;;;;5135423;27;20074;-73
2023/07/15 08:46:06;;;;;;;4.15;1.35;;;25.20;99.90;;;;;;5150862;27;20101;-73
2023/07/15 08:48:32;;;;;;;5.00;1.48;;;25.30;99.90;;;;;;5135209;27;20047;-72
2023/07/15 08:51:00;;;;;;;2.47;1.10;;;25.50;99.90;;;;;;5100792;27;20475;-73
2023/07/15 08:53:27;;;;;;;3.63;1.27;;;25.60;99.90;;;;;;5117225;27;20050;-72
2023/07/15 08:55:58;;;;;;;3.13;1.20;;;25.70;99.90;;;;;;5135524;27;20082;-73
2023/07/15 08:58:24;;;;;;;3.38;1.25;;;25.80;99.90;;;;;;5134930;27;20046;-72
2023/07/15 09:00:53;;;;;;;4.55;1.38;;;26.00;99.90;;;;;;5117249;27;20035;-72
2023/07/15 09:03:21;;;;;;;5.03;1.25;;;26.20;99.90;;;;;;5150968;27;20456;-72
2023/07/15 09:05:48;;;;;;;4.18;1.40;;;26.40;99.90;;;;;;5135651;27;20444;-73
2023/07/15 09:08:15;;;;;;;3.20;1.30;;;26.50;99.90;;;;;;5134779;27;20398;-72
2023/07/15 09:10:54;;;;;;;2.92;1.17;;;26.60;99.90;;;;;;5116787;27;20092;-71
2023/07/15 09:13:28;;;;;;;3.22;1.08;;;26.60;99.90;;;;;;5134735;27;20478;-71
2023/07/15 09:15:55;;;;;;;4.95;1.25;;;26.50;99.90;;;;;;5150962;27;20093;-73
2023/07/15 09:18:22;;;;;;;3.92;1.33;;;26.50;99.90;;;;;;5116441;27;20039;-72
2023/07/15 09:20:49;;;;;;;6.93;1.80;;;26.40;99.90;;;;;;5116570;27;20483;-73
2023/07/15 09:23:15;;;;;;;5.40;1.38;;;26.50;99.90;;;;;;5115938;27;20082;-73
2023/07/15 09:25:54;;;;;;;4.85;1.25;;;26.60;99.90;;;;;;5134286;27;20555;-73
2023/07/15 09:28:21;;;;;;;5.85;1.48;;;26.80;99.90;;;;;;5116395;27;20371;-72
2023/07/15 09:30:46;;;;;;;;;;;26.70;99.90;;;;;;5100675;27;20074;-72
2023/07/15 09:33:32;;;;;;;;;;;26.30;99.90;;;;;;5117111;27;19920;-73
2023/07/15 09:35:58;;;;;;;3.70;1.50;;;26.30;99.90;;;;;;5115885;28;19927;-72
2023/07/15 09:38:30;;;;;;;4.50;1.38;;;26.20;99.90;;;;;;5116073;27;20081;-72
2023/07/15 09:40:56;;;;;;;6.05;1.50;;;26.30;99.90;;;;;;5116953;28;20054;-71
2023/07/15 09:43:22;;;;;;;4.47;1.30;;;26.40;99.90;;;;;;5134437;28;20050;-74
2023/07/15 09:45:48;;;;;;;5.77;1.23;;;26.10;99.90;;;;;;5150984;27;20386;-72
2023/07/15 09:48:17;;;;;;;3.38;1.13;;;26.20;99.90;;;;;;5134314;28;20280;-72
2023/07/15 09:50:43;;;;;;;3.92;1.50;;;26.20;99.90;;;;;;5134321;28;20070;-72
2023/07/15 09:53:10;;;;;;;5.38;1.20;;;26.30;99.90;;;;;;5134233;28;20146;-73
2023/07/15 09:55:37;;;;;;;5.90;1.30;;;26.40;99.90;;;;;;5115761;28;20043;-73
2023/07/15 09:58:09;;;;;;;3.92;0.98;;;26.60;99.90;;;;;;5133781;28;20122;-73
2023/07/15 10:00:39;;;;;;;3.38;1.30;;;26.70;99.90;;;;;;5133984;28;20089;-72
2023/07/15 10:03:07;;;;;;;2.80;1.08;;;26.70;99.90;;;;;;5116361;28;20051;-73
2023/07/15 10:05:33;;;;;;;3.22;1.00;;;26.60;99.90;;;;;;5116274;28;20367;-72
2023/07/15 10:08:00;;;;;;;4.70;1.10;;;26.70;99.90;;;;;;5115997;28;20039;-73
2023/07/15 10:10:26;;;;;;;5.25;0.98;;;26.80;99.90;;;;;;5134183;28;20050;-73
2023/07/15 10:12:53;;;;;;;4.10;1.13;;;26.90;99.90;;;;;;5134497;28;20053;-71
2023/07/15 10:15:19;;;;;;;4.15;1.00;;;27.00;99.90;;;;;;5149831;27;20039;-70
2023/07/15 10:17:46;;;;;;;6.22;1.05;;;27.00;99.90;;;;;;5098668;28;20047;-71
2023/07/15 10:20:15;;;;;;;5.65;1.13;;;27.10;99.90;;;;;;5116386;28;20035;-72
2023/07/15 10:22:42;;;;;;;3.92;1.00;;;27.10;99.90;;;;;;5133606;28;20043;-73
2023/07/15 10:25:10;;;;;;;5.50;1.15;;;27.20;99.90;;;;;;5133111;27;20134;-73
2023/07/15 10:27:36;;;;;;;6.20;1.00;;;27.10;99.90;;;;;;5115557;28;20131;-71
2023/07/15 10:30:19;;;;;;;3.58;1.13;;;27.10;99.90;;;;;;5133868;28;20051;-72
2023/07/15 10:33:00;;;;;;;4.63;1.00;;;26.90;99.90;;;;;;5115629;28;20502;-73
2023/07/15 10:35:47;;;;;;;2.70;0.82;;;26.70;99.90;;;;;;5115409;28;20394;-72
2023/07/15 10:38:26;;;;;;;3.15;0.90;;;26.80;99.90;;;;;;5115701;28;20364;-72
2023/07/15 10:41:04;;;;;;;7.45;0.90;;;26.80;99.90;;;;;;5098999;28;20088;-71
2023/07/15 10:43:33;;;;;;;2.25;0.90;;;27.00;99.90;;;;;;5133376;28;20035;-71
2023/07/15 10:46:10;;;;;;;4.75;1.00;;;27.10;99.90;;;;;;5098498;28;20058;-73
2023/07/15 10:48:37;;;;;;;3.08;0.90;;;27.50;99.90;;;;;;5117262;27;20051;-73
2023/07/15 10:51:05;;;;;;;2.38;0.80;;;27.80;99.90;;;;;;5119122;27;20039;-73
2023/07/15 10:53:32;;;;;;;3.60;0.90;;;27.90;99.90;;;;;;5119176;27;20050;-71
2023/07/15 10:56:01;;;;;;;3.72;0.70;;;27.90;99.90;;;;;;5119472;27;20104;-71
2023/07/15 10:58:29;;;;;;;2.45;0.75;;;27.80;99.90;;;;;;5137121;27;20150;-72
2023/07/15 11:01:02;;;;;;;6.57;0.77;;;27.70;99.90;;;;;;5118907;27;20039;-74
2023/07/15 11:03:29;;;;;;;4.43;1.48;;;27.50;99.90;;;;;;5102483;27;20124;-72
2023/07/15 11:06:01;;;;;;;2.78;1.00;;;27.50;99.90;;;;;;5137274;27;20058;-74
2023/07/15 11:08:28;;;;;;;3.35;0.93;;;27.60;99.90;;;;;;5118513;27;20035;-73
2023/07/15 11:11:12;;;;;;;4.97;1.10;;;27.70;99.90;;;;;;5154175;27;20047;-73
2023/07/15 11:13:40;;;;;;;5.47;1.02;;;27.70;99.90;;;;;;5119485;27;20047;-73
2023/07/15 11:16:06;;;;;;;4.97;1.02;;;27.70;99.90;;;;;;5118650;27;20494;-71
2023/07/15 11:18:32;;;;;;;7.43;1.15;;;27.50;99.90;;;;;;5153173;27;20050;-73
2023/07/15 11:21:00;;;;;;;6.05;0.90;;;27.50;99.90;;;;;;5118903;27;20051;-72
2023/07/15 11:23:30;;;;;;;6.75;1.00;;;27.30;99.90;;;;;;5118247;27;20047;-72
2023/07/15 11:25:59;;;;;;;4.00;1.10;;;27.20;99.90;;;;;;5136839;27;20491;-73
2023/07/15 11:28:26;;;;;;;5.80;1.40;;;27.00;99.90;;;;;;5101422;27;20077;-72
2023/07/15 11:30:51;;;;;;;4.20;1.00;;;27.00;99.90;;;;;;5136151;27;20588;-73
2023/07/15 11:33:17;;;;;;;5.53;1.10;;;27.10;99.90;;;;;;5135470;27;20058;-71
2023/07/15 11:35:45;;;;;;;6.13;0.90;;;27.20;99.90;;;;;;5084782;27;20050;-72
2023/07/15 11:38:12;;;;;;;4.18;1.00;;;27.20;99.90;;;;;;5118799;27;20415;-74
2023/07/15 11:40:55;;;;;;;3.22;1.17;;;27.20;99.90;;;;;;5136382;27;20184;-73
2023/07/15 11:43:23;;;;;;;3.65;1.17;;;27.30;99.90;;;;;;5100712;27;20046;-71
2023/07/15 11:45:49;;;;;;;3.55;1.05;;;27.10;99.90;;;;;;5117968;27;20054;-70
2023/07/15 11:48:22;;;;;;;4.60;1.20;;;26.70;99.90;;;;;;5101479;27;20046;-74
2023/07/15 11:50:48;;;;;;;4.65;1.00;;;26.60;99.90;;;;;;5136278;27;20078;-72
2023/07/15 11:53:30;;;;;;;3.10;1.02;;;26.50;99.90;;;;;;5135216;27;20039;-73
2023/07/15 11:55:57;;;;;;;4.03;1.23;;;26.40;99.90;;;;;;5118879;27;20054;-72
2023/07/15 11:58:39;;;;;;;4.72;1.40;;;26.60;99.90;;;;;;5136216;27;20047;-72
2023/07/15 12:01:14;;;;;;;5.75;1.10;;;26.70;99.90;;;;;;5102371;27;20047;-72
2023/07/15 12:03:40;;;;;;;5.15;0.90;;;26.90;99.90;;;;;;5118110;27;20093;-72
2023/07/15 12:06:14;;;;;;;3.15;1.15;;;27.20;99.90;;;;;;5117461;27;20067;-72
2023/07/15 12:08:40;;;;;;;6.05;1.00;;;27.20;99.90;;;;;;5084703;27;20431;-71
2023/07/15 12:11:05;;;;;;;3.22;0.98;;;27.40;99.90;;;;;;5100217;27;20046;-72
2023/07/15 12:13:31;;;;;;;5.55;1.05;;;27.40;99.90;;;;;;5136105;27;20047;-71
2023/07/15 12:15:57;;;;;;;5.20;1.13;;;27.40;99.90;;;;;;5136482;27;20224;-72
2023/07/15 12:18:23;;;;;;;5.20;1.00;;;27.40;99.90;;;;;;5134693;27;20474;-71
2023/07/15 12:20:48;;;;;;;4.47;1.10;;;27.30;99.90;;;;;;5100670;27;20395;-74
2023/07/15 12:23:14;;;;;;;5.47;0.90;;;27.20;99.90;;;;;;5117434;27;20281;-71
2023/07/15 12:25:40;;;;;;;6.45;1.00;;;27.20;99.90;;;;;;5117448;27;20624;-71
2023/07/15 12:28:06;;;;;;;3.50;1.00;;;27.00;99.90;;;;;;5135290;27;20043;-70
2023/07/15 12:30:31;;;;;;;3.33;1.02;;;27.10;99.90;;;;;;5136015;27;20043;-72
2023/07/15 12:32:57;;;;;;;4.25;0.80;;;27.00;99.90;;;;;;5135994;27;20163;-71
2023/07/15 12:35:23;;;;;;;3.90;0.90;;;26.90;99.90;;;;;;5135727;27;20043;-73
2023/07/15 12:37:48;;;;;;;3.42;0.82;;;26.90;99.90;;;;;;5116769;27;20390;-72
2023/07/15 12:40:14;;;;;;;2.55;0.80;;;27.00;99.90;;;;;;5100363;27;20050;-73
2023/07/15 12:42:40;;;;;;;2.15;0.80;;;26.90;99.90;;;;;;5099994;27;20054;-74
2023/07/15 12:45:06;;;;;;;2.27;0.83;;;27.10;99.90;;;;;;5135512;27;20142;-72
2023/07/15 12:47:32;;;;;;;3.35;0.75;;;27.20;99.90;;;;;;5116537;27;20288;-70
2023/07/15 12:49:57;;;;;;;4.35;0.80;;;27.40;99.90;;;;;;5117265;27;20047;-71